»·PEaware :: N653AW KNYL-KONT

N653AW :: KNYL-KONT

FLIGHT INFORMATION

Flight Status: Arrived
Operator: Privately registered:
United States
More flights under this callsign
Pilot: Sergei F. (8485)
Aircraft: AIRBUS A320
(A320)
More flights by this aircraft type
Origin: KNYL Yuma MCAS/Yuma Intl
United States
Destination: KONT Ontario Intl
United States
More flights between these airports :: More routes between these airports
Route: +BZA IPL AMMOR SCBBY2
File this flight plan on PilotEdge
Remarks:
Altitude:
(Current/Filed)
26,000ft
Speed:
(Current/Filed)
400kts
Departed: 11-Jul-20 07:56 PM
Arrived: 11-Jul-20 08:34 PM
Distance/Time
Traveled:
172nm/0:38
Distance/Time
To Go:
Arrived

Flight Plot

Page will automatically refresh every two minutes.


Map Options




Map Legend


Flown Route
Filed Route
Departure Airport
Arrival Airport
Navaid (VOR, NDB)
Fix

Horizontal Profiles

Position Reports

Time Latitude Longitude Heading Altitude Ground
Speed
11-Jul-20 19:18 32.667853 -114.599586 359 203ft 0kts
11-Jul-20 19:19 32.667853 -114.599586 359 203ft 0kts
11-Jul-20 19:20 32.667853 -114.599586 359 203ft 0kts
11-Jul-20 19:21 32.667853 -114.599586 359 203ft 0kts
11-Jul-20 19:22 32.667853 -114.599586 359 203ft 0kts
11-Jul-20 19:23 32.667853 -114.599586 359 203ft 0kts
11-Jul-20 19:24 32.667853 -114.599586 359 203ft 0kts
11-Jul-20 19:25 32.667853 -114.599586 359 203ft 0kts
11-Jul-20 19:26 32.667853 -114.599586 359 203ft 0kts
11-Jul-20 19:27 32.667853 -114.599586 359 203ft 0kts
11-Jul-20 19:28 32.667853 -114.599586 359 203ft 0kts
11-Jul-20 19:29 32.667853 -114.599586 359 203ft 0kts
11-Jul-20 19:30 32.667853 -114.599586 359 203ft 0kts
11-Jul-20 19:31 32.667853 -114.599586 359 203ft 0kts
11-Jul-20 19:32 32.667853 -114.599586 359 203ft 0kts
11-Jul-20 19:33 32.667853 -114.599586 359 203ft 0kts
11-Jul-20 19:34 32.667853 -114.599586 359 203ft 0kts
11-Jul-20 19:35 32.667853 -114.599586 359 203ft 0kts
11-Jul-20 19:36 32.667853 -114.599586 359 203ft 0kts
11-Jul-20 19:37 32.667853 -114.599586 359 203ft 0kts
11-Jul-20 19:38 32.667853 -114.599586 359 203ft 0kts
11-Jul-20 19:39 32.667853 -114.599586 359 203ft 0kts
11-Jul-20 19:40 32.667853 -114.599586 359 203ft 0kts
11-Jul-20 19:41 32.667853 -114.599586 359 203ft 0kts
11-Jul-20 19:42 32.667853 -114.599586 359 203ft 0kts
11-Jul-20 19:43 32.667853 -114.599586 359 203ft 0kts
11-Jul-20 19:44 32.667853 -114.599586 359 203ft 0kts
11-Jul-20 19:45 32.667335 -114.599634 45 203ft 2kts
11-Jul-20 19:46 32.667276 -114.599863 89 203ft 0kts
11-Jul-20 19:47 32.667276 -114.599863 89 203ft 0kts
11-Jul-20 19:48 32.667276 -114.599863 89 203ft 0kts
11-Jul-20 19:49 32.667276 -114.599863 89 203ft 0kts
11-Jul-20 19:50 32.667295 -114.598461 88 205ft 9kts
11-Jul-20 19:51 32.667345 -114.594143 89 211ft 14kts
11-Jul-20 19:52 32.667416 -114.589424 89 216ft 15kts
11-Jul-20 19:53 32.667119 -114.586085 173 216ft 5kts
11-Jul-20 19:54 32.666142 -114.586764 267 216ft 9kts
11-Jul-20 19:55 32.667627 -114.627861 299 1862ft 175kts
11-Jul-20 19:57 32.717404 -114.626952 22 4438ft 218kts
11-Jul-20 19:58 32.768208 -114.652913 270 6954ft 257kts
11-Jul-20 19:59 32.765983 -114.748390 266 9218ft 308kts
11-Jul-20 20:00 32.763509 -114.856733 267 11312ft 355kts
11-Jul-20 20:01 32.761019 -114.976635 267 13970ft 370kts
11-Jul-20 20:02 32.758368 -115.100885 268 16511ft 381kts
11-Jul-20 20:03 32.755544 -115.228384 268 18837ft 392kts
11-Jul-20 20:04 32.752514 -115.359310 268 20956ft 404kts
11-Jul-20 20:05 32.749197 -115.495208 268 22942ft 414kts
11-Jul-20 20:06 32.761480 -115.632523 280 24767ft 425kts
11-Jul-20 20:07 32.782111 -115.773207 278 25815ft 450kts
11-Jul-20 20:08 32.804562 -115.926385 286 25823ft 487kts
11-Jul-20 20:09 32.868110 -116.068190 301 25825ft 486kts
11-Jul-20 20:10 32.937135 -116.206361 301 25862ft 486kts
11-Jul-20 20:11 33.006201 -116.345096 300 26004ft 485kts
11-Jul-20 20:11 33.067841 -116.456545 309 26074ft 486kts
11-Jul-20 20:13 33.163764 -116.590297 310 22650ft 480kts
11-Jul-20 20:14 33.274187 -116.674951 341 19720ft 458kts
11-Jul-20 20:14 33.371986 -116.716516 341 17267ft 439kts
11-Jul-20 20:15 33.483583 -116.764226 341 14740ft 419kts
11-Jul-20 20:17 33.605853 -116.817057 341 13374ft 393kts
11-Jul-20 20:17 33.690357 -116.853778 341 12788ft 388kts
11-Jul-20 20:18 33.791184 -116.897704 341 12082ft 382kts
11-Jul-20 20:19 33.888435 -116.940217 341 11256ft 347kts
11-Jul-20 20:20 33.958587 -116.999535 295 9571ft 306kts
11-Jul-20 20:21 33.990593 -117.083935 292 8765ft 254kts
11-Jul-20 20:22 34.019746 -117.157491 292 7448ft 240kts
11-Jul-20 20:23 34.047899 -117.228469 292 6065ft 228kts
11-Jul-20 20:24 34.055432 -117.300228 267 4979ft 215kts
11-Jul-20 20:25 34.055246 -117.368027 267 4457ft 194kts
11-Jul-20 20:26 34.055117 -117.433064 267 4024ft 194kts
11-Jul-20 20:27 34.055212 -117.493145 267 2906ft 175kts
11-Jul-20 20:28 34.072373 -117.533299 13 2374ft 175kts
11-Jul-20 20:29 34.066907 -117.497741 205 2002ft 148kts
11-Jul-20 20:30 34.054654 -117.535742 271 1671ft 131kts
11-Jul-20 20:31 34.054931 -117.574273 268 1083ft 129kts
11-Jul-20 20:32 34.054948 -117.600297 270 924ft 42kts
11-Jul-20 20:33 34.055984 -117.605882 308 934ft 0kts
11-Jul-20 20:34 34.056232 -117.606253 312 936ft 4kts
11-Jul-20 20:35 34.057587 -117.607894 314 941ft 8kts
11-Jul-20 20:36 34.058957 -117.607558 44 945ft 8kts
11-Jul-20 20:37 34.060332 -117.605904 45 948ft 6kts
11-Jul-20 20:38 34.061277 -117.605980 295 950ft 2kts
11-Jul-20 20:39 34.061308 -117.606059 295 950ft 0kts
11-Jul-20 20:40 34.061308 -117.606059 295 950ft 0kts
11-Jul-20 20:41 34.061308 -117.606059 295 950ft 0kts

Navigation Log

Ident Type
Flight plan parsing failed, navigation log unavailable